createdAt,value
2018-05-06T00:02:05.973Z,72.34
2018-05-06T00:04:33.568Z,72.66
2018-05-06T00:07:01.205Z,72.89
2018-05-06T00:09:28.880Z,73.04
2018-05-06T00:11:56.472Z,73.01
2018-05-06T00:14:24.048Z,72.81
2018-05-06T00:16:51.753Z,72.90
2018-05-06T00:19:19.580Z,72.83
2018-05-06T00:21:47.226Z,72.95
2018-05-06T00:24:14.832Z,73.01
2018-05-06T00:26:42.670Z,73.04
2018-05-06T00:29:10.285Z,73.09
2018-05-06T00:31:37.848Z,73.42
2018-05-06T00:34:05.595Z,73.45
2018-05-06T00:36:33.157Z,73.75
2018-05-06T00:39:00.958Z,73.94
2018-05-06T00:41:28.611Z,74.19
2018-05-06T00:43:56.409Z,74.37
2018-05-06T00:46:23.992Z,74.36
2018-05-06T00:48:51.584Z,74.18
2018-05-06T00:51:19.180Z,74.06
2018-05-06T00:53:46.745Z,73.90
2018-05-06T00:56:14.332Z,74.03
2018-05-06T00:58:42.063Z,73.96
2018-05-06T01:01:09.927Z,73.74
2018-05-06T01:03:37.488Z,73.61
2018-05-06T01:06:05.338Z,73.57
2018-05-06T01:08:32.918Z,73.92
2018-05-06T01:11:00.500Z,73.92
2018-05-06T01:13:28.102Z,74.34
2018-05-06T01:15:55.764Z,74.46
2018-05-06T01:18:23.398Z,74.91
2018-05-06T01:20:51.148Z,74.90
2018-05-06T01:23:18.759Z,75.21
2018-05-06T01:25:46.340Z,75.27
2018-05-06T01:28:14.027Z,75.31
2018-05-06T01:30:41.607Z,75.39
2018-05-06T01:33:09.423Z,75.21
2018-05-06T01:35:37.278Z,75.27
2018-05-06T01:38:04.869Z,75.53
2018-05-06T01:40:32.465Z,75.78
2018-05-06T01:43:00.162Z,76.37
2018-05-06T01:45:27.935Z,76.87
2018-05-06T01:47:55.527Z,77.30
2018-05-06T01:50:23.107Z,77.25
2018-05-06T01:52:50.781Z,77.08
2018-05-06T01:55:18.346Z,76.83
2018-05-06T01:57:46.028Z,77.12
2018-05-06T02:00:13.644Z,77.18
2018-05-06T02:02:41.232Z,77.74
2018-05-06T02:05:09.795Z,77.96
2018-05-06T02:07:37.453Z,78.14
2018-05-06T02:10:05.185Z,78.04
2018-05-06T02:12:32.949Z,78.36
2018-05-06T02:15:00.580Z,78.29
2018-05-06T02:17:28.394Z,78.24
2018-05-06T02:19:56.208Z,78.30
2018-05-06T02:22:24.023Z,78.21
2018-05-06T02:24:51.842Z,78.25
2018-05-06T02:27:19.668Z,78.69
2018-05-06T02:29:47.649Z,79.01
2018-05-06T02:32:15.393Z,79.00
2018-05-06T02:34:43.060Z,78.99
2018-05-06T02:37:10.628Z,79.34
2018-05-06T02:39:38.200Z,79.37
2018-05-06T02:42:05.789Z,79.22
2018-05-06T02:44:33.589Z,78.57
2018-05-06T02:47:01.409Z,78.43
2018-05-06T02:49:29.168Z,78.80
2018-05-06T02:51:56.851Z,79.03
2018-05-06T02:54:24.421Z,78.90
2018-05-06T02:56:52.067Z,79.29
2018-05-06T02:59:19.902Z,79.33
2018-05-06T03:01:47.540Z,79.42
2018-05-06T03:04:15.148Z,79.49
2018-05-06T03:06:42.832Z,79.79
2018-05-06T03:09:10.413Z,80.23
2018-05-06T03:11:38.288Z,80.49
2018-05-06T03:14:05.856Z,80.38
2018-05-06T03:16:33.517Z,80.05
2018-05-06T03:19:01.104Z,79.85
2018-05-06T03:21:28.670Z,80.30
2018-05-06T03:23:56.357Z,80.66
2018-05-06T03:26:23.952Z,80.94
2018-05-06T03:28:51.525Z,80.94
2018-05-06T03:31:19.154Z,80.72
2018-05-06T03:33:46.716Z,80.67
2018-05-06T03:36:14.354Z,80.36
2018-05-06T03:38:41.932Z,80.07
2018-05-06T03:41:09.497Z,80.16
2018-05-06T03:43:37.108Z,80.11
2018-05-06T03:46:04.713Z,80.28
2018-05-06T03:48:32.303Z,80.06
2018-05-06T03:51:00.057Z,79.79
2018-05-06T03:53:27.682Z,79.88
2018-05-06T03:59:21.044Z,79.77
2018-05-06T04:04:47.488Z,79.23
2018-05-06T04:07:15.064Z,79.35
2018-05-06T04:09:42.813Z,79.30
2018-05-06T04:12:10.631Z,78.66
2018-05-06T04:14:38.196Z,78.23
2018-05-06T04:17:05.784Z,78.07
2018-05-06T04:19:33.360Z,77.48
2018-05-06T04:22:01.105Z,77.21
2018-05-06T04:24:28.728Z,76.73
2018-05-06T04:26:56.325Z,76.12
2018-05-06T04:29:24.163Z,75.65
2018-05-06T04:31:51.981Z,75.32
2018-05-06T04:34:19.590Z,74.84
2018-05-06T04:36:47.221Z,73.79
2018-05-06T04:39:15.035Z,73.67
2018-05-06T04:41:42.596Z,73.80
2018-05-06T04:44:10.199Z,73.54
2018-05-06T04:46:37.985Z,72.88
2018-05-06T04:49:05.710Z,72.15
2018-05-06T04:51:33.522Z,71.19
2018-05-06T04:54:01.173Z,70.25
2018-05-06T04:56:28.832Z,70.19
2018-05-06T04:58:56.411Z,69.72
2018-05-06T05:01:24.037Z,69.41
2018-05-06T05:03:51.739Z,68.69
2018-05-06T05:06:19.424Z,68.42
2018-05-06T05:08:47.040Z,68.68
2018-05-06T05:11:14.679Z,68.11
2018-05-06T05:13:42.273Z,67.40
2018-05-06T05:16:09.853Z,66.55
2018-05-06T05:18:37.439Z,66.20
2018-05-06T05:21:05.141Z,66.07
2018-05-06T05:23:33.230Z,65.18
2018-05-06T05:26:00.956Z,64.90
2018-05-06T05:28:28.795Z,64.05
2018-05-06T05:30:56.408Z,63.40
2018-05-06T05:33:24.023Z,62.55
2018-05-06T05:35:51.638Z,61.70
2018-05-06T05:38:19.239Z,60.61
2018-05-06T05:40:46.826Z,59.10
2018-05-06T05:43:14.568Z,58.35
2018-05-06T05:45:42.513Z,56.94
2018-05-06T05:48:10.202Z,55.33
2018-05-06T05:50:37.788Z,54.19
2018-05-06T05:53:05.449Z,53.17
2018-05-06T05:55:33.052Z,51.95
2018-05-06T05:58:00.694Z,50.79
2018-05-06T06:00:28.530Z,49.49
2018-05-06T06:02:56.101Z,48.18
2018-05-06T06:05:23.757Z,47.07
2018-05-06T06:07:51.576Z,45.85
2018-05-06T06:10:19.157Z,45.16
2018-05-06T06:12:46.738Z,43.80
2018-05-06T06:15:14.520Z,43.90
2018-05-06T06:17:42.258Z,44.26
2018-05-06T06:20:09.808Z,44.53
2018-05-06T06:22:37.374Z,42.25
2018-05-06T06:25:04.997Z,40.77
2018-05-06T06:27:32.829Z,41.42
2018-05-06T06:30:00.433Z,42.45
2018-05-06T06:32:28.037Z,43.81
2018-05-06T06:34:55.656Z,44.08
2018-05-06T06:37:23.220Z,43.48
2018-05-06T06:39:50.809Z,41.49
2018-05-06T06:42:18.541Z,40.36
2018-05-06T06:44:46.120Z,39.36
2018-05-06T06:47:13.860Z,38.32
2018-05-06T06:49:41.485Z,36.79
2018-05-06T06:52:09.059Z,35.17
2018-05-06T06:54:36.632Z,35.23
2018-05-06T06:57:04.447Z,33.95
2018-05-06T06:59:32.001Z,33.57
2018-05-06T07:01:59.783Z,32.97
2018-05-06T07:04:27.358Z,32.76
2018-05-06T07:06:54.992Z,33.03
2018-05-06T07:09:22.560Z,33.08
2018-05-06T07:11:50.247Z,32.98
2018-05-06T07:14:17.816Z,32.73
2018-05-06T07:16:45.353Z,32.03
2018-05-06T07:19:12.997Z,31.25
2018-05-06T07:21:40.729Z,30.15
2018-05-06T07:24:08.335Z,28.92
2018-05-06T07:26:35.916Z,29.05
2018-05-06T07:29:03.491Z,28.45
2018-05-06T07:31:31.081Z,29.89
2018-05-06T07:33:58.635Z,29.72
2018-05-06T07:36:26.433Z,28.91
2018-05-06T07:38:54.016Z,29.18
2018-05-06T07:41:21.628Z,29.32
2018-05-06T07:43:49.389Z,29.98
2018-05-06T07:46:16.941Z,30.83
2018-05-06T07:48:44.643Z,29.79
2018-05-06T07:51:12.289Z,29.73
2018-05-06T07:53:39.861Z,29.88
2018-05-06T07:56:07.678Z,29.52
2018-05-06T07:58:35.249Z,29.44
2018-05-06T08:01:03.116Z,29.59
2018-05-06T08:03:30.680Z,29.93
2018-05-06T08:05:58.243Z,30.15
2018-05-06T08:08:25.804Z,32.12
2018-05-06T08:10:53.604Z,33.23
2018-05-06T08:13:21.195Z,31.64
2018-05-06T08:15:48.931Z,31.41
2018-05-06T08:18:16.562Z,30.86
2018-05-06T08:20:44.150Z,30.78
2018-05-06T08:23:11.984Z,30.95
2018-05-06T08:25:39.801Z,31.27
2018-05-06T08:28:07.617Z,31.75
2018-05-06T08:30:35.173Z,32.67
2018-05-06T08:33:02.733Z,30.20
2018-05-06T08:35:30.308Z,30.16
2018-05-06T08:37:58.053Z,31.49
2018-05-06T08:40:25.652Z,32.44
2018-05-06T08:42:53.311Z,30.82
2018-05-06T08:45:20.944Z,29.44
2018-05-06T08:47:48.761Z,29.17
2018-05-06T08:50:16.581Z,28.29
2018-05-06T08:52:44.287Z,28.09
2018-05-06T08:55:11.915Z,28.66
2018-05-06T08:57:39.508Z,28.55
2018-05-06T09:00:07.081Z,29.89
2018-05-06T09:02:34.712Z,29.18
2018-05-06T09:05:02.290Z,29.55
2018-05-06T09:07:29.868Z,28.68
2018-05-06T09:09:57.464Z,30.12
2018-05-06T09:12:25.053Z,31.87
2018-05-06T09:14:52.858Z,32.14
2018-05-06T09:17:20.678Z,30.59
2018-05-06T09:19:48.404Z,30.72
2018-05-06T09:22:16.019Z,31.62
2018-05-06T09:24:43.751Z,31.54
2018-05-06T09:27:11.364Z,31.48
2018-05-06T09:29:38.968Z,30.72
2018-05-06T09:32:06.566Z,30.64
2018-05-06T09:34:34.404Z,31.39
2018-05-06T09:37:02.040Z,31.10
2018-05-06T09:39:29.620Z,33.62
2018-05-06T09:41:57.240Z,34.74
2018-05-06T09:44:24.835Z,34.20
2018-05-06T09:46:52.436Z,32.80
2018-05-06T09:49:20.029Z,31.77
2018-05-06T09:51:47.599Z,32.05
2018-05-06T09:54:15.299Z,32.34
2018-05-06T09:56:42.884Z,31.65
2018-05-06T09:59:10.686Z,31.43
2018-05-06T10:01:38.269Z,33.27
2018-05-06T10:04:06.070Z,32.76
2018-05-06T10:06:33.697Z,33.06
2018-05-06T10:09:01.283Z,33.21
2018-05-06T10:11:28.998Z,34.81
2018-05-06T10:13:56.629Z,34.24
2018-05-06T10:16:24.204Z,33.65
2018-05-06T10:18:51.818Z,32.60
2018-05-06T10:21:19.720Z,31.47
2018-05-06T10:23:47.465Z,31.47
2018-05-06T10:26:15.100Z,31.56
2018-05-06T10:28:42.705Z,30.58
2018-05-06T10:31:10.353Z,32.29
2018-05-06T10:33:37.909Z,31.34
2018-05-06T10:36:05.647Z,31.40
2018-05-06T10:38:33.301Z,31.38
2018-05-06T10:41:00.845Z,32.33
2018-05-06T10:43:28.712Z,31.03
2018-05-06T10:45:56.374Z,31.62
2018-05-06T10:48:24.136Z,32.02
2018-05-06T10:50:51.708Z,32.45
2018-05-06T10:53:19.295Z,32.93
2018-05-06T10:55:46.891Z,32.63
2018-05-06T10:58:14.468Z,32.47
2018-05-06T11:00:42.036Z,33.55
2018-05-06T11:03:09.660Z,34.79
2018-05-06T11:05:37.236Z,34.38
2018-05-06T11:08:04.991Z,33.96
2018-05-06T11:10:32.583Z,33.59
2018-05-06T11:13:00.160Z,33.08
2018-05-06T11:15:27.752Z,32.35
2018-05-06T11:17:55.559Z,31.64
2018-05-06T11:20:23.286Z,32.59
2018-05-06T11:22:50.860Z,33.54
2018-05-06T11:25:18.464Z,33.87
2018-05-06T11:27:46.209Z,34.00
2018-05-06T11:30:13.768Z,34.00
2018-05-06T11:32:41.541Z,34.59
2018-05-06T11:35:09.157Z,33.66
2018-05-06T11:37:36.798Z,34.46
2018-05-06T11:40:04.627Z,33.91
2018-05-06T11:42:32.230Z,34.13
2018-05-06T11:45:00.063Z,33.80
2018-05-06T11:47:27.645Z,34.57
2018-05-06T11:49:55.243Z,34.13
2018-05-06T11:52:22.922Z,34.53
2018-05-06T11:54:50.735Z,34.54
2018-05-06T11:57:18.322Z,34.93
2018-05-06T11:59:45.920Z,36.13
2018-05-06T12:02:13.591Z,36.19
2018-05-06T12:04:41.198Z,35.30
2018-05-06T12:07:08.872Z,34.92
2018-05-06T12:09:36.644Z,35.07
2018-05-06T12:12:04.295Z,34.98
2018-05-06T12:14:31.877Z,35.97
2018-05-06T12:16:59.489Z,36.24
2018-05-06T12:19:27.065Z,35.99
2018-05-06T12:21:54.732Z,35.79
2018-05-06T12:24:22.268Z,35.35
2018-05-06T12:26:50.069Z,34.91
2018-05-06T12:29:17.889Z,35.13
2018-05-06T12:31:45.677Z,35.56
2018-05-06T12:34:13.265Z,36.20
2018-05-06T12:36:40.878Z,36.14
2018-05-06T12:39:08.464Z,36.25
2018-05-06T12:41:36.280Z,35.55
2018-05-06T12:44:03.865Z,33.80
2018-05-06T12:46:31.556Z,32.77
2018-05-06T12:48:59.156Z,33.47
2018-05-06T12:51:26.754Z,33.44
2018-05-06T12:53:54.570Z,34.20
2018-05-06T12:56:22.179Z,34.58
2018-05-06T12:58:49.820Z,34.60
2018-05-06T13:01:17.624Z,34.76
2018-05-06T13:03:45.444Z,34.32
2018-05-06T13:06:13.050Z,34.42
2018-05-06T13:08:40.686Z,33.91
2018-05-06T13:11:08.478Z,34.24
2018-05-06T13:13:36.293Z,34.52
2018-05-06T13:16:04.025Z,33.59
2018-05-06T13:18:31.611Z,33.15
2018-05-06T13:20:59.219Z,32.88
2018-05-06T13:23:26.825Z,32.21
2018-05-06T13:25:54.408Z,33.20
2018-05-06T13:28:22.224Z,32.99
2018-05-06T13:30:49.817Z,32.35
2018-05-06T13:33:17.670Z,32.66
2018-05-06T13:35:45.264Z,32.12
2018-05-06T13:38:12.856Z,31.95
2018-05-06T13:40:40.497Z,31.83
2018-05-06T13:43:08.088Z,31.70
2018-05-06T13:45:35.696Z,31.22
2018-05-06T13:48:03.304Z,31.24
2018-05-06T13:50:30.940Z,31.43
2018-05-06T13:52:58.710Z,31.81
2018-05-06T13:55:26.525Z,32.46
2018-05-06T13:57:54.129Z,32.64
2018-05-06T14:00:21.745Z,32.64
2018-05-06T14:02:49.480Z,32.51
2018-05-06T14:05:17.058Z,32.73
2018-05-06T14:07:44.680Z,33.38
2018-05-06T14:10:12.240Z,33.79
2018-05-06T14:12:40.051Z,34.09
2018-05-06T14:15:07.646Z,34.31
2018-05-06T14:17:35.464Z,34.98
2018-05-06T14:20:03.051Z,35.34
2018-05-06T14:22:30.637Z,36.12
2018-05-06T14:24:58.441Z,35.31
2018-05-06T14:27:26.016Z,35.23
2018-05-06T14:29:53.596Z,33.77
2018-05-06T14:32:21.175Z,33.61
2018-05-06T14:34:48.769Z,32.69
2018-05-06T14:37:16.532Z,32.58
2018-05-06T14:39:44.349Z,32.64
2018-05-06T14:42:12.173Z,32.08
2018-05-06T14:44:39.988Z,33.03
2018-05-06T14:50:09.352Z,33.54
2018-05-06T14:52:36.996Z,33.85
2018-05-06T14:55:04.557Z,34.13
2018-05-06T14:57:32.113Z,33.32
2018-05-06T14:59:59.796Z,33.48
2018-05-06T15:02:27.536Z,33.63
2018-05-06T15:04:55.351Z,33.89
2018-05-06T15:07:23.172Z,34.88
2018-05-06T15:09:50.989Z,35.34
2018-05-06T15:12:18.579Z,36.10
2018-05-06T15:14:46.230Z,35.31
2018-05-06T15:17:14.043Z,35.51
2018-05-06T15:19:41.862Z,35.28
2018-05-06T15:22:09.461Z,35.85
2018-05-06T15:24:37.028Z,36.06
2018-05-06T15:27:04.684Z,36.20
2018-05-06T15:29:32.375Z,36.58
2018-05-06T15:31:59.934Z,37.12
2018-05-06T15:34:27.501Z,37.42
2018-05-06T15:36:55.068Z,37.53
2018-05-06T15:39:22.695Z,37.41
2018-05-06T15:41:50.524Z,37.76
2018-05-06T15:44:18.344Z,37.93
2018-05-06T15:46:45.946Z,38.27
2018-05-06T15:49:13.552Z,38.38
2018-05-06T15:51:41.264Z,38.62
2018-05-06T15:54:09.116Z,39.24
2018-05-06T15:56:36.742Z,39.16
2018-05-06T15:59:04.356Z,39.17
2018-05-06T16:01:31.920Z,39.33
2018-05-06T16:04:12.381Z,40.02
2018-05-06T16:06:40.167Z,40.24
2018-05-06T16:09:07.849Z,40.56
2018-05-06T16:11:35.452Z,41.07
2018-05-06T16:14:03.020Z,41.22
2018-05-06T16:16:30.659Z,41.48
2018-05-06T16:18:58.444Z,42.33
2018-05-06T16:21:26.045Z,42.74
2018-05-06T16:23:53.771Z,42.67
2018-05-06T16:26:21.597Z,43.02
2018-05-06T16:28:49.164Z,43.31
2018-05-06T16:31:16.728Z,43.63
2018-05-06T16:33:44.450Z,43.95
2018-05-06T16:36:12.270Z,43.86
2018-05-06T16:38:39.852Z,44.01
2018-05-06T16:41:07.420Z,43.97
2018-05-06T16:43:35.223Z,44.39
2018-05-06T16:46:03.043Z,44.66
2018-05-06T16:48:30.605Z,44.65
2018-05-06T16:50:58.386Z,44.86
2018-05-06T16:53:25.951Z,45.08
2018-05-06T16:55:53.568Z,45.36
2018-05-06T16:58:21.132Z,43.22
2018-05-06T17:00:48.713Z,42.81
2018-05-06T17:03:16.301Z,41.79
2018-05-06T17:05:43.988Z,42.38
2018-05-06T17:08:11.664Z,41.75
2018-05-06T17:10:39.201Z,42.20
2018-05-06T17:13:06.777Z,42.18
2018-05-06T17:15:34.425Z,42.57
2018-05-06T17:18:02.101Z,42.36
2018-05-06T17:20:29.782Z,42.29
2018-05-06T17:22:57.383Z,42.19
2018-05-06T17:25:25.017Z,42.62
2018-05-06T17:27:52.674Z,42.45
2018-05-06T17:30:20.230Z,43.00
2018-05-06T17:32:47.861Z,43.24
2018-05-06T17:35:15.436Z,43.41
2018-05-06T17:37:43.121Z,43.58
2018-05-06T17:40:10.729Z,43.93
2018-05-06T17:42:38.305Z,43.92
2018-05-06T17:45:06.180Z,44.27
2018-05-06T17:47:33.784Z,43.99
2018-05-06T17:50:01.442Z,44.13
2018-05-06T17:52:28.989Z,44.39
2018-05-06T17:54:56.747Z,44.45
2018-05-06T17:57:24.370Z,44.27
2018-05-06T17:59:51.960Z,43.67
2018-05-06T18:02:19.524Z,44.07
2018-05-06T18:04:47.123Z,43.48
2018-05-06T18:07:14.712Z,43.46
2018-05-06T18:09:42.350Z,43.76
2018-05-06T18:12:10.177Z,44.26
2018-05-06T18:14:37.759Z,45.38
2018-05-06T18:17:05.486Z,46.26
2018-05-06T18:19:33.064Z,48.14
2018-05-06T18:22:00.823Z,50.02
2018-05-06T18:24:28.388Z,51.93
2018-05-06T18:26:56.181Z,52.63
2018-05-06T18:29:24.002Z,54.53
2018-05-06T18:31:51.667Z,56.48
2018-05-06T18:34:19.280Z,59.03
2018-05-06T18:36:46.879Z,62.52
2018-05-06T18:39:14.513Z,63.48
2018-05-06T18:41:42.099Z,63.98
2018-05-06T18:44:09.694Z,64.66
2018-05-06T18:46:37.341Z,64.98
2018-05-06T18:49:04.981Z,63.48
2018-05-06T18:51:32.540Z,65.68
2018-05-06T18:54:00.184Z,64.81
2018-05-06T18:56:27.748Z,64.98
2018-05-06T18:58:55.343Z,65.28
2018-05-06T19:01:23.119Z,65.15
2018-05-06T19:03:50.832Z,65.17
2018-05-06T19:06:18.566Z,65.61
2018-05-06T19:08:46.157Z,67.06
2018-05-06T19:11:13.787Z,66.69
2018-05-06T19:13:41.920Z,66.64
2018-05-06T19:16:09.504Z,65.83
2018-05-06T19:18:37.480Z,67.98
2018-05-06T19:21:05.086Z,69.04
2018-05-06T19:23:32.861Z,68.82
2018-05-06T19:26:00.459Z,67.21
2018-05-06T19:28:28.334Z,66.59
2018-05-06T19:30:56.261Z,67.04
2018-05-06T19:33:23.941Z,66.95
2018-05-06T19:35:51.511Z,67.78
2018-05-06T19:38:20.446Z,68.21
2018-05-06T19:40:48.188Z,68.38
2018-05-06T19:43:15.815Z,67.33
2018-05-06T19:45:43.408Z,67.38
2018-05-06T19:48:11.186Z,66.38
2018-05-06T19:50:38.832Z,67.27
2018-05-06T19:53:06.532Z,69.13
2018-05-06T19:55:34.161Z,68.80
2018-05-06T19:58:01.810Z,68.01
2018-05-06T20:00:29.392Z,66.21
2018-05-06T20:02:57.207Z,65.89
2018-05-06T20:05:24.917Z,68.05
2018-05-06T20:07:52.950Z,69.12
2018-05-06T20:10:20.532Z,70.25
2018-05-06T20:12:48.179Z,70.83
2018-05-06T20:15:15.827Z,71.03
2018-05-06T20:17:43.598Z,71.07
2018-05-06T20:20:11.177Z,70.80
2018-05-06T20:22:38.886Z,70.97
2018-05-06T20:25:06.586Z,69.60
2018-05-06T20:27:35.154Z,71.60
2018-05-06T20:30:02.812Z,72.62
2018-05-06T20:32:30.589Z,71.92
2018-05-06T20:34:58.170Z,71.21
2018-05-06T20:37:25.956Z,72.51
2018-05-06T20:39:53.666Z,72.22
2018-05-06T20:42:21.338Z,72.55
2018-05-06T20:44:49.232Z,72.97
2018-05-06T20:47:17.029Z,73.57
2018-05-06T20:49:44.592Z,72.90
2018-05-06T20:52:12.233Z,73.05
2018-05-06T20:54:39.904Z,72.96
2018-05-06T20:57:07.853Z,73.07
2018-05-06T20:59:35.651Z,73.29
2018-05-06T21:02:03.695Z,72.25
2018-05-06T21:04:31.302Z,72.40
2018-05-06T21:06:59.072Z,72.04
2018-05-06T21:09:26.822Z,71.94
2018-05-06T21:11:54.392Z,71.78
2018-05-06T21:14:22.018Z,71.25
2018-05-06T21:16:49.635Z,71.37
2018-05-06T21:19:17.226Z,70.52
2018-05-06T21:21:44.781Z,71.00
2018-05-06T21:24:12.372Z,71.08
2018-05-06T21:26:39.992Z,71.40
2018-05-06T21:29:07.568Z,71.59
2018-05-06T21:31:35.140Z,71.59
2018-05-06T21:34:02.740Z,71.70
2018-05-06T21:36:30.317Z,71.54
2018-05-06T21:38:57.968Z,71.94
2018-05-06T21:41:25.540Z,71.71
2018-05-06T21:43:53.099Z,71.94
2018-05-06T21:46:20.684Z,71.65
2018-05-06T21:48:48.481Z,71.82
2018-05-06T21:51:16.202Z,71.96
2018-05-06T21:53:43.761Z,71.72
2018-05-06T21:56:11.389Z,71.96
2018-05-06T21:58:38.980Z,72.06
2018-05-06T22:01:06.691Z,72.35
2018-05-06T22:03:34.491Z,72.64
2018-05-06T22:06:02.072Z,72.57
2018-05-06T22:08:29.705Z,73.00
2018-05-06T22:10:57.444Z,72.79
2018-05-06T22:13:25.130Z,72.61
2018-05-06T22:15:52.728Z,72.65
2018-05-06T22:18:20.463Z,72.98
2018-05-06T22:20:48.281Z,72.93
2018-05-06T22:23:16.017Z,72.99
2018-05-06T22:25:43.660Z,73.12
2018-05-06T22:28:11.233Z,73.00
2018-05-06T22:30:38.857Z,72.73
2018-05-06T22:33:06.428Z,72.57
2018-05-06T22:35:33.981Z,72.27
2018-05-06T22:38:01.572Z,72.32
2018-05-06T22:40:29.140Z,72.86
2018-05-06T22:42:56.760Z,72.49
2018-05-06T22:45:24.345Z,72.57
2018-05-06T22:47:51.907Z,72.24
2018-05-06T22:50:19.502Z,72.60
2018-05-06T22:52:47.071Z,72.90
2018-05-06T22:55:14.872Z,72.88
2018-05-06T22:57:42.504Z,73.00
2018-05-06T23:00:10.406Z,72.59
2018-05-06T23:02:37.978Z,72.33
2018-05-06T23:05:05.551Z,72.56
2018-05-06T23:07:33.191Z,72.57
2018-05-06T23:10:00.830Z,72.73
2018-05-06T23:12:28.396Z,73.01
2018-05-06T23:14:56.029Z,73.99
2018-05-06T23:17:23.645Z,73.80
2018-05-06T23:19:51.214Z,74.18
2018-05-06T23:22:18.899Z,74.40
2018-05-06T23:24:46.436Z,75.41
2018-05-06T23:27:14.119Z,74.80
2018-05-06T23:29:41.696Z,76.58
2018-05-06T23:32:09.339Z,78.04
2018-05-06T23:34:37.161Z,79.06
2018-05-06T23:37:04.740Z,80.47
2018-05-06T23:39:32.314Z,82.11
2018-05-06T23:41:59.893Z,82.59
2018-05-06T23:44:27.604Z,83.85
2018-05-06T23:46:55.342Z,84.62
2018-05-06T23:49:23.057Z,85.32
2018-05-06T23:51:50.895Z,85.39
2018-05-06T23:54:18.709Z,85.64
2018-05-06T23:56:46.468Z,86.60
2018-05-06T23:59:14.081Z,86.16
